createdAt,value
2023-03-05T00:01:18.999Z,96652.19
2023-03-05T00:03:46.298Z,96658.22
2023-03-05T00:06:13.438Z,96662.03
2023-03-05T00:08:40.294Z,96655.91
2023-03-05T00:11:10.252Z,96652.09
2023-03-05T00:13:37.850Z,96651.03
2023-03-05T00:16:11.211Z,96656.03
2023-03-05T00:18:38.717Z,96648.69
2023-03-05T00:21:17.439Z,96635.94
2023-03-05T00:23:44.059Z,96636.41
2023-03-05T00:26:10.689Z,96632.88
2023-03-05T00:28:37.316Z,96636.56
2023-03-05T00:31:04.406Z,96630.09
2023-03-05T00:33:31.045Z,96636.69
2023-03-05T00:35:58.751Z,96626.19
2023-03-05T00:38:25.786Z,96624.91
2023-03-05T00:40:52.444Z,96629.31
2023-03-05T00:43:19.006Z,96627.13
2023-03-05T00:45:45.877Z,96617.41
2023-03-05T00:48:12.543Z,96621.09
2023-03-05T00:50:39.179Z,96616.59
2023-03-05T00:53:06.378Z,96620.75
2023-03-05T00:55:32.997Z,96607.59
2023-03-05T00:57:59.602Z,96615.09
2023-03-05T01:00:26.442Z,96617.22
2023-03-05T01:02:53.062Z,96611.03
2023-03-05T01:05:20.116Z,96606.69
2023-03-05T01:07:46.870Z,96599.38
2023-03-05T01:10:13.929Z,96610.94
2023-03-05T01:12:40.633Z,96608.75
2023-03-05T01:15:07.663Z,96606.22
2023-03-05T01:17:34.721Z,96603.56
2023-03-05T01:20:01.461Z,96597.09
2023-03-05T01:22:28.738Z,96614.44
2023-03-05T01:24:55.577Z,96596.06
2023-03-05T01:27:22.166Z,96604.84
2023-03-05T01:29:48.926Z,96608.00
2023-03-05T01:32:16.116Z,96606.34
2023-03-05T01:34:42.734Z,96610.97
2023-03-05T01:37:09.733Z,96613.41
2023-03-05T01:39:36.474Z,96617.94
2023-03-05T01:42:04.510Z,96614.47
2023-03-05T01:44:33.063Z,96620.81
2023-03-05T01:47:00.099Z,96610.31
2023-03-05T01:49:35.477Z,96606.16
2023-03-05T01:52:17.962Z,96600.59
2023-03-05T01:54:55.003Z,96611.31
2023-03-05T01:57:53.721Z,96611.69
2023-03-05T02:00:25.808Z,96601.75
2023-03-05T02:02:52.845Z,96604.25
2023-03-05T02:05:27.294Z,96606.56
2023-03-05T02:07:59.018Z,96607.06
2023-03-05T02:10:33.858Z,96603.81
2023-03-05T02:13:06.905Z,96611.69
2023-03-05T02:15:34.440Z,96608.88
2023-03-05T02:18:01.705Z,96610.72
2023-03-05T02:20:31.601Z,96608.31
2023-03-05T02:22:58.247Z,96603.66
2023-03-05T02:25:28.060Z,96605.75
2023-03-05T02:28:02.709Z,96610.63
2023-03-05T02:30:31.411Z,96605.16
2023-03-05T02:32:58.464Z,96607.25
2023-03-05T02:35:25.644Z,96616.38
2023-03-05T02:37:52.428Z,96586.44
2023-03-05T02:40:19.301Z,96619.50
2023-03-05T02:42:46.768Z,96622.16
2023-03-05T02:45:13.903Z,96618.44
2023-03-05T02:47:40.730Z,96602.63
2023-03-05T02:50:10.293Z,96617.63
2023-03-05T02:52:37.131Z,96604.69
2023-03-05T02:55:04.270Z,96624.22
2023-03-05T02:57:31.010Z,96620.63
2023-03-05T02:59:57.735Z,96620.38
2023-03-05T03:02:24.367Z,96618.56
2023-03-05T03:04:54.743Z,96616.94
2023-03-05T03:07:21.350Z,96615.91
2023-03-05T03:09:49.629Z,96617.16
2023-03-05T03:12:16.217Z,96620.03
2023-03-05T03:14:43.760Z,96622.34
2023-03-05T03:17:13.898Z,96619.91
2023-03-05T03:19:41.456Z,96619.31
2023-03-05T03:22:10.197Z,96608.13
2023-03-05T03:24:38.771Z,96609.75
2023-03-05T03:27:05.693Z,96611.84
2023-03-05T03:29:32.572Z,96615.50
2023-03-05T03:31:59.772Z,96614.13
2023-03-05T03:34:27.083Z,96608.47
2023-03-05T03:36:54.188Z,96612.38
2023-03-05T03:39:22.078Z,96605.09
2023-03-05T03:41:51.378Z,96603.94
2023-03-05T03:44:19.705Z,96601.13
2023-03-05T03:46:47.932Z,96604.81
2023-03-05T03:49:17.349Z,96608.16
2023-03-05T03:51:43.977Z,96603.28
2023-03-05T03:54:10.771Z,96606.16
2023-03-05T03:56:37.517Z,96604.19
2023-03-05T03:59:04.299Z,96605.00
2023-03-05T04:01:31.012Z,96607.53
2023-03-05T04:03:57.638Z,96610.19
2023-03-05T04:06:24.416Z,96617.34
2023-03-05T04:08:51.121Z,96614.69
2023-03-05T04:11:19.566Z,96613.88
2023-03-05T04:13:47.785Z,96614.06
2023-03-05T04:16:15.632Z,96605.63
2023-03-05T04:18:42.735Z,96609.88
2023-03-05T04:21:09.825Z,96606.66
2023-03-05T04:23:36.513Z,96602.00
2023-03-05T04:26:03.263Z,96611.59
2023-03-05T04:28:30.323Z,96600.03
2023-03-05T04:30:57.033Z,96605.34
2023-03-05T04:33:23.820Z,96605.78
2023-03-05T04:35:51.227Z,96601.75
2023-03-05T04:38:18.051Z,96599.38
2023-03-05T04:40:45.838Z,96605.53
2023-03-05T04:43:12.775Z,96600.41
2023-03-05T04:45:41.326Z,96601.09
2023-03-05T04:48:09.138Z,96601.09
2023-03-05T04:50:35.725Z,96598.88
2023-03-05T04:53:02.970Z,96606.03
2023-03-05T04:55:30.083Z,96605.22
2023-03-05T04:57:56.866Z,96607.28
2023-03-05T05:00:23.715Z,96604.50
2023-03-05T05:02:52.320Z,96605.28
2023-03-05T05:05:24.770Z,96604.91
2023-03-05T05:07:58.135Z,96605.97
2023-03-05T05:10:25.460Z,96619.00
2023-03-05T05:12:52.270Z,96622.06
2023-03-05T05:15:19.453Z,96630.84
2023-03-05T05:17:46.742Z,96625.53
2023-03-05T05:20:15.075Z,96624.97
2023-03-05T05:22:42.402Z,96636.53
2023-03-05T05:25:10.497Z,96629.84
2023-03-05T05:27:39.123Z,96636.53
2023-03-05T05:30:07.179Z,96632.50
2023-03-05T05:32:34.273Z,96648.53
2023-03-05T05:35:00.922Z,96630.28
2023-03-05T05:37:27.917Z,96651.78
2023-03-05T05:39:54.577Z,96652.97
2023-03-05T05:42:24.262Z,96657.84
2023-03-05T05:44:51.017Z,96660.19
2023-03-05T05:47:18.365Z,96677.72
2023-03-05T05:49:45.018Z,96682.22
2023-03-05T05:52:11.813Z,96670.38
2023-03-05T05:54:39.136Z,96670.94
2023-03-05T05:57:06.349Z,96678.03
2023-03-05T05:59:33.319Z,96676.56
2023-03-05T06:02:00.265Z,96673.09
2023-03-05T06:04:26.934Z,96673.03
2023-03-05T06:06:53.665Z,96683.78
2023-03-05T06:09:20.372Z,96676.97
2023-03-05T06:11:47.298Z,96674.00
2023-03-05T06:14:14.429Z,96675.19
2023-03-05T06:16:41.529Z,96676.16
2023-03-05T06:19:11.651Z,96684.41
2023-03-05T06:21:38.513Z,96684.97
2023-03-05T06:24:05.921Z,96681.44
2023-03-05T06:26:33.300Z,96694.19
2023-03-05T06:29:00.031Z,96697.22
2023-03-05T06:31:28.076Z,96696.88
2023-03-05T06:33:57.094Z,96700.25
2023-03-05T06:36:25.528Z,96699.13
2023-03-05T06:38:53.597Z,96697.19
2023-03-05T06:41:25.213Z,96711.19
2023-03-05T06:43:52.067Z,96695.69
2023-03-05T06:46:20.112Z,96706.69
2023-03-05T06:48:47.184Z,96708.22
2023-03-05T06:51:19.788Z,96707.44
2023-03-05T06:53:49.396Z,96707.69
2023-03-05T06:56:16.868Z,96708.59
2023-03-05T06:58:46.057Z,96710.00
2023-03-05T07:01:14.501Z,96699.03
2023-03-05T07:03:42.004Z,96697.63
2023-03-05T07:06:12.142Z,96706.41
2023-03-05T07:08:39.326Z,96709.53
2023-03-05T07:11:22.515Z,96706.75
2023-03-05T07:13:49.937Z,96718.75
2023-03-05T07:16:19.344Z,96714.69
2023-03-05T07:18:46.593Z,96714.09
2023-03-05T07:21:22.807Z,96710.81
2023-03-05T07:23:50.345Z,96707.75
2023-03-05T07:26:17.136Z,96703.94
2023-03-05T07:28:43.777Z,96711.28
2023-03-05T07:31:19.392Z,96701.31
2023-03-05T07:33:47.515Z,96699.38
2023-03-05T07:36:14.544Z,96704.91
2023-03-05T07:38:41.604Z,96708.22
2023-03-05T07:41:11.335Z,96712.47
2023-03-05T07:43:38.872Z,96712.28
2023-03-05T07:46:11.464Z,96715.59
2023-03-05T07:48:38.721Z,96717.31
2023-03-05T07:51:15.184Z,96713.09
2023-03-05T07:53:47.000Z,96717.81
2023-03-05T07:56:14.307Z,96713.13
2023-03-05T07:58:41.026Z,96708.41
2023-03-05T08:01:15.473Z,96705.56
2023-03-05T08:03:43.529Z,96710.00
2023-03-05T08:06:12.340Z,96717.03
2023-03-05T08:08:39.050Z,96709.66
2023-03-05T08:11:07.920Z,96718.63
2023-03-05T08:13:36.235Z,96713.09
2023-03-05T08:16:15.103Z,96714.53
2023-03-05T08:18:42.455Z,96703.34
2023-03-05T08:21:22.995Z,96706.69
2023-03-05T08:23:50.117Z,96696.81
2023-03-05T08:26:20.333Z,96706.34
2023-03-05T08:28:47.961Z,96706.88
2023-03-05T08:31:16.561Z,96713.59
2023-03-05T08:33:43.841Z,96700.22
2023-03-05T08:36:11.260Z,96705.63
2023-03-05T08:38:37.957Z,96705.69
2023-03-05T08:41:05.129Z,96715.38
2023-03-05T08:43:33.408Z,96719.72
2023-03-05T08:46:01.432Z,96706.94
2023-03-05T08:48:29.921Z,96713.16
2023-03-05T08:50:57.144Z,96700.63
2023-03-05T08:53:24.444Z,96716.81
2023-03-05T08:55:58.437Z,96715.06
2023-03-05T08:58:25.336Z,96715.34
2023-03-05T09:00:52.256Z,96710.59
2023-03-05T09:03:19.240Z,96716.28
2023-03-05T09:05:46.323Z,96716.59
2023-03-05T09:08:12.991Z,96715.50
2023-03-05T09:10:42.836Z,96708.34
2023-03-05T09:13:10.060Z,96708.88
2023-03-05T09:15:37.459Z,96716.97
2023-03-05T09:18:04.699Z,96713.78
2023-03-05T09:20:31.528Z,96715.63
2023-03-05T09:22:58.151Z,96712.50
2023-03-05T09:25:24.953Z,96700.72
2023-03-05T09:27:51.685Z,96713.13
2023-03-05T09:30:18.536Z,96689.22
2023-03-05T09:32:45.500Z,96684.66
2023-03-05T09:35:12.589Z,96692.22
2023-03-05T09:37:39.195Z,96697.66
2023-03-05T09:40:06.436Z,96702.78
2023-03-05T09:42:45.372Z,96699.31
2023-03-05T09:45:27.021Z,96695.06
2023-03-05T09:48:06.555Z,96688.13
2023-03-05T09:50:36.461Z,96693.50
2023-03-05T09:53:11.905Z,96689.25
2023-03-05T09:55:42.643Z,96690.38
2023-03-05T09:58:43.940Z,96679.19
2023-03-05T10:01:14.550Z,96681.13
2023-03-05T10:03:49.477Z,96668.53
2023-03-05T10:06:23.954Z,96668.84
2023-03-05T10:09:25.749Z,96668.06
2023-03-05T10:12:06.377Z,96657.88
2023-03-05T10:14:40.254Z,96650.91
2023-03-05T10:17:27.296Z,96658.16
2023-03-05T10:20:22.703Z,96650.63
2023-03-05T10:23:01.546Z,96646.06
2023-03-05T10:26:19.091Z,96645.22
2023-03-05T10:28:57.654Z,96648.66
2023-03-05T10:32:03.415Z,96633.31
2023-03-05T10:34:43.149Z,96617.41
2023-03-05T10:37:17.257Z,96620.00
2023-03-05T10:40:16.871Z,96621.81
2023-03-05T10:43:07.650Z,96623.31
2023-03-05T10:45:43.165Z,96616.97
2023-03-05T10:48:15.729Z,96615.59
2023-03-05T10:50:50.453Z,96604.53
2023-03-05T10:53:28.153Z,96602.94
2023-03-05T10:55:56.816Z,96601.84
2023-03-05T10:58:25.151Z,96605.16
2023-03-05T11:01:28.979Z,96598.97
2023-03-05T11:04:01.214Z,96589.50
2023-03-05T11:06:47.756Z,96593.28
2023-03-05T11:09:32.431Z,96583.34
2023-03-05T11:12:19.015Z,96595.34
2023-03-05T11:15:07.521Z,96586.03
2023-03-05T11:17:43.431Z,96582.97
2023-03-05T11:20:29.207Z,96572.88
2023-03-05T11:23:03.247Z,96570.94
2023-03-05T11:25:31.294Z,96566.81
2023-03-05T11:28:00.614Z,96547.91
2023-03-05T11:30:35.498Z,96564.94
2023-03-05T11:33:31.968Z,96549.44
2023-03-05T11:36:24.612Z,96539.16
2023-03-05T11:39:00.359Z,96548.09
2023-03-05T11:41:32.560Z,96542.75
2023-03-05T11:44:03.932Z,96529.66
2023-03-05T11:46:42.710Z,96530.44
2023-03-05T11:49:14.790Z,96536.41
2023-03-05T11:51:46.305Z,96542.03
2023-03-05T11:54:21.293Z,96535.09
2023-03-05T11:56:48.189Z,96527.56
2023-03-05T11:59:20.013Z,96516.19
2023-03-05T12:01:50.577Z,96520.22
2023-03-05T12:04:21.194Z,96525.03
2023-03-05T12:06:49.703Z,96524.75
2023-03-05T12:09:35.416Z,96517.78
2023-03-05T12:12:21.015Z,96508.63
2023-03-05T12:15:09.606Z,96508.47
2023-03-05T12:17:55.266Z,96503.50
2023-03-05T12:20:35.167Z,96503.63
2023-03-05T12:23:02.143Z,96507.53
2023-03-05T12:25:31.877Z,96504.34
2023-03-05T12:27:59.184Z,96500.31
2023-03-05T12:30:49.674Z,96499.75
2023-03-05T12:33:37.565Z,96487.75
2023-03-05T12:36:22.704Z,96491.09
2023-03-05T12:38:53.555Z,96485.75
2023-03-05T12:41:22.970Z,96489.78
2023-03-05T12:44:18.176Z,96494.69
2023-03-05T12:47:25.589Z,96484.63
2023-03-05T12:49:52.444Z,96483.16
2023-03-05T12:52:24.885Z,96492.13
2023-03-05T12:55:03.805Z,96487.81
2023-03-05T12:57:31.437Z,96489.56
2023-03-05T13:00:21.730Z,96485.13
2023-03-05T13:02:56.191Z,96485.38
2023-03-05T13:05:36.099Z,96490.09
2023-03-05T13:08:22.267Z,96480.25
2023-03-05T13:10:54.398Z,96471.56
2023-03-05T13:13:21.725Z,96470.91
2023-03-05T13:15:50.582Z,96465.94
2023-03-05T13:18:23.573Z,96463.63
2023-03-05T13:21:04.740Z,96465.00
2023-03-05T13:23:33.330Z,96464.34
2023-03-05T13:26:03.702Z,96468.00
2023-03-05T13:28:32.651Z,96451.44
2023-03-05T13:31:12.360Z,96457.41
2023-03-05T13:33:39.476Z,96448.53
2023-03-05T13:36:07.274Z,96462.44
2023-03-05T13:38:43.989Z,96451.88
2023-03-05T13:41:43.043Z,96441.69
2023-03-05T13:44:21.961Z,96442.31
2023-03-05T13:46:48.925Z,96435.00
2023-03-05T13:49:25.700Z,96433.84
2023-03-05T13:52:00.131Z,96426.75
2023-03-05T13:54:28.432Z,96444.28
2023-03-05T13:56:58.864Z,96436.72
2023-03-05T13:59:31.969Z,96431.09
2023-03-05T14:02:00.798Z,96434.38
2023-03-05T14:04:36.831Z,96429.88
2023-03-05T14:07:18.778Z,96430.47
2023-03-05T14:09:52.531Z,96433.50
2023-03-05T14:12:30.499Z,96432.19
2023-03-05T14:14:59.412Z,96431.72
2023-03-05T14:17:41.885Z,96436.59
2023-03-05T14:20:27.608Z,96425.06
2023-03-05T14:22:59.419Z,96434.25
2023-03-05T14:25:36.706Z,96431.94
2023-03-05T14:28:17.804Z,96430.13
2023-03-05T14:30:49.331Z,96426.13
2023-03-05T14:33:32.480Z,96427.16
2023-03-05T14:36:01.496Z,96408.41
2023-03-05T14:38:32.031Z,96419.41
2023-03-05T14:40:58.638Z,96423.22
2023-03-05T14:43:25.659Z,96426.22
2023-03-05T14:45:52.423Z,96422.31
2023-03-05T14:48:19.273Z,96432.00
2023-03-05T14:50:51.688Z,96426.66
2023-03-05T14:53:23.014Z,96428.84
2023-03-05T14:55:53.918Z,96428.38
2023-03-05T14:58:22.147Z,96432.19
2023-03-05T15:00:51.117Z,96426.84
2023-03-05T15:03:19.410Z,96436.59
2023-03-05T15:05:49.555Z,96429.31
2023-03-05T15:08:29.361Z,96428.75
2023-03-05T15:10:56.502Z,96416.66
2023-03-05T15:13:23.455Z,96427.13
2023-03-05T15:15:51.588Z,96423.94
2023-03-05T15:18:20.685Z,96423.41
2023-03-05T15:20:54.915Z,96419.91
2023-03-05T15:23:21.515Z,96421.81
2023-03-05T15:25:48.365Z,96406.78
2023-03-05T15:28:15.846Z,96420.44
2023-03-05T15:30:45.792Z,96420.72
2023-03-05T15:33:15.554Z,96420.72
2023-03-05T15:35:43.115Z,96423.41
2023-03-05T15:38:09.718Z,96414.59
2023-03-05T15:40:36.651Z,96415.47
2023-03-05T15:43:03.729Z,96406.16
2023-03-05T15:45:33.801Z,96427.34
2023-03-05T15:48:00.641Z,96405.38
2023-03-05T15:50:27.466Z,96418.53
2023-03-05T15:52:54.128Z,96422.56
2023-03-05T15:55:24.062Z,96418.03
2023-03-05T15:57:52.328Z,96422.63
2023-03-05T16:00:25.793Z,96418.53
2023-03-05T16:02:53.970Z,96421.00
2023-03-05T16:05:20.704Z,96431.19
2023-03-05T16:07:50.334Z,96427.72
2023-03-05T16:10:22.984Z,96426.66
2023-03-05T16:12:57.756Z,96436.56
2023-03-05T16:15:25.416Z,96432.28
2023-03-05T16:17:56.231Z,96442.81
2023-03-05T16:20:23.771Z,96433.94
2023-03-05T16:22:50.828Z,96436.38
2023-03-05T16:25:18.068Z,96446.03
2023-03-05T16:27:45.128Z,96448.22
2023-03-05T16:30:15.126Z,96442.06
2023-03-05T16:32:42.319Z,96439.94
2023-03-05T16:35:11.945Z,96450.69
2023-03-05T16:37:39.842Z,96448.56
2023-03-05T16:40:08.934Z,96452.88
2023-03-05T16:42:35.538Z,96446.47
2023-03-05T16:45:02.991Z,96459.34
2023-03-05T16:47:29.876Z,96457.75
2023-03-05T16:49:56.615Z,96471.19
2023-03-05T16:52:23.574Z,96475.88
2023-03-05T16:54:50.346Z,96476.78
2023-03-05T16:57:17.053Z,96485.16
2023-03-05T16:59:43.959Z,96472.31
2023-03-05T17:02:13.277Z,96468.84
2023-03-05T17:04:40.177Z,96465.09
2023-03-05T17:07:07.170Z,96481.22
2023-03-05T17:09:34.069Z,96483.63
2023-03-05T17:12:00.992Z,96485.28
2023-03-05T17:14:28.534Z,96495.19
2023-03-05T17:16:55.379Z,96485.81
2023-03-05T17:19:22.116Z,96497.59
2023-03-05T17:21:51.186Z,96495.44
2023-03-05T17:24:20.173Z,96509.16
2023-03-05T17:26:48.436Z,96510.47
2023-03-05T17:29:15.104Z,96492.50
2023-03-05T17:31:41.981Z,96508.59
2023-03-05T17:34:08.673Z,96512.34
2023-03-05T17:36:35.336Z,96519.59
2023-03-05T17:39:02.002Z,96511.28
2023-03-05T17:41:28.672Z,96512.34
2023-03-05T17:43:55.300Z,96503.75
2023-03-05T17:46:22.151Z,96516.38
2023-03-05T17:48:48.808Z,96517.19
2023-03-05T17:51:16.785Z,96516.66
2023-03-05T17:53:44.347Z,96516.94
2023-03-05T17:56:13.455Z,96525.78
2023-03-05T17:58:40.693Z,96523.63
2023-03-05T18:01:08.727Z,96523.38
2023-03-05T18:03:36.547Z,96524.13
2023-03-05T18:06:04.954Z,96534.34
2023-03-05T18:08:32.067Z,96530.59
2023-03-05T18:10:58.755Z,96537.56
2023-03-05T18:13:26.098Z,96525.75
2023-03-05T18:15:52.843Z,96533.00
2023-03-05T18:18:19.676Z,96536.75
2023-03-05T18:20:47.700Z,96537.03
2023-03-05T18:23:14.595Z,96532.44
2023-03-05T18:25:41.444Z,96529.78
2023-03-05T18:28:12.953Z,96535.41
2023-03-05T18:30:40.944Z,96531.66
2023-03-05T18:33:09.124Z,96530.56
2023-03-05T18:35:36.973Z,96535.13
2023-03-05T18:38:03.843Z,96538.88
2023-03-05T18:40:32.681Z,96542.09
2023-03-05T18:43:01.072Z,96539.66
2023-03-05T18:45:29.138Z,96548.25
2023-03-05T18:47:56.742Z,96542.34
2023-03-05T18:50:28.467Z,96536.16
2023-03-05T18:52:55.798Z,96542.63
2023-03-05T18:55:25.527Z,96543.94
2023-03-05T18:57:52.869Z,96553.59
2023-03-05T19:00:22.841Z,96554.13
2023-03-05T19:02:49.754Z,96547.63
2023-03-05T19:05:16.937Z,96532.88
2023-03-05T19:07:43.650Z,96547.66
2023-03-05T19:10:12.376Z,96549.28
2023-03-05T19:13:13.722Z,96540.16
2023-03-05T19:15:40.618Z,96545.56
2023-03-05T19:18:07.644Z,96551.72
2023-03-05T19:20:34.412Z,96541.78
2023-03-05T19:23:01.079Z,96546.88
2023-03-05T19:25:27.678Z,96561.13
2023-03-05T19:27:55.112Z,96553.84
2023-03-05T19:30:21.934Z,96565.91
2023-03-05T19:32:49.724Z,96565.63
2023-03-05T19:35:17.567Z,96563.19
2023-03-05T19:37:45.968Z,96564.78
2023-03-05T19:40:14.318Z,96568.56
2023-03-05T19:42:41.198Z,96562.09
2023-03-05T19:45:08.602Z,96564.22
2023-03-05T19:47:35.428Z,96564.50
2023-03-05T19:50:02.790Z,96562.63
2023-03-05T19:52:29.412Z,96557.56
2023-03-05T19:54:56.412Z,96569.59
2023-03-05T19:57:23.122Z,96573.06
2023-03-05T19:59:53.863Z,96576.03
2023-03-05T20:02:22.013Z,96567.94
2023-03-05T20:04:49.782Z,96558.53
2023-03-05T20:07:16.623Z,96565.53
2023-03-05T20:09:43.425Z,96557.78
2023-03-05T20:12:10.549Z,96553.19
2023-03-05T20:14:37.286Z,96554.59
2023-03-05T20:17:04.128Z,96554.53
2023-03-05T20:19:30.828Z,96561.50
2023-03-05T20:21:57.540Z,96559.91
2023-03-05T20:24:24.413Z,96568.47
2023-03-05T20:26:51.132Z,96563.63
2023-03-05T20:29:18.831Z,96571.66
2023-03-05T20:31:46.465Z,96563.59
2023-03-05T20:34:15.939Z,96555.28
2023-03-05T20:36:43.586Z,96547.22
2023-03-05T20:39:10.548Z,96553.16
2023-03-05T20:41:38.996Z,96547.81
2023-03-05T20:44:07.364Z,96555.56
2023-03-05T20:46:36.848Z,96552.88
2023-03-05T20:49:04.693Z,96558.53
2023-03-05T20:51:35.213Z,96556.88
2023-03-05T20:54:11.315Z,96557.72
2023-03-05T20:56:38.036Z,96554.47
2023-03-05T20:59:08.641Z,96549.34
2023-03-05T21:01:37.725Z,96550.16
2023-03-05T21:04:05.052Z,96554.97
2023-03-05T21:06:32.589Z,96553.91
2023-03-05T21:08:59.891Z,96555.78
2023-03-05T21:11:27.610Z,96547.75
2023-03-05T21:13:54.306Z,96545.31
2023-03-05T21:16:26.311Z,96549.59
2023-03-05T21:18:53.650Z,96552.81
2023-03-05T21:21:20.445Z,96548.00
2023-03-05T21:23:47.434Z,96549.06
2023-03-05T21:26:14.546Z,96538.28
2023-03-05T21:28:41.858Z,96556.00
2023-03-05T21:31:14.266Z,96554.66
2023-03-05T21:33:42.112Z,96551.16
2023-03-05T21:36:09.176Z,96542.84
2023-03-05T21:38:36.584Z,96537.50
2023-03-05T21:41:05.218Z,96535.88
2023-03-05T21:43:32.683Z,96534.56
2023-03-05T21:46:01.572Z,96532.41
2023-03-05T21:48:28.320Z,96531.84
2023-03-05T21:50:55.462Z,96528.09
2023-03-05T21:53:22.500Z,96532.38
2023-03-05T21:56:24.164Z,96534.28
2023-03-05T21:58:51.947Z,96535.59
2023-03-05T22:01:21.058Z,96542.56
2023-03-05T22:03:49.001Z,96548.22
2023-03-05T22:06:18.242Z,96543.66
2023-03-05T22:08:45.007Z,96550.09
2023-03-05T22:11:14.342Z,96554.34
2023-03-05T22:13:41.727Z,96554.63
2023-03-05T22:16:09.693Z,96545.22
2023-03-05T22:18:36.838Z,96548.19
2023-03-05T22:21:03.960Z,96546.59
2023-03-05T22:23:34.101Z,96543.38
2023-03-05T22:26:06.766Z,96537.22
2023-03-05T22:28:34.804Z,96540.69
2023-03-05T22:31:01.436Z,96530.75
2023-03-05T22:33:28.739Z,96539.34
2023-03-05T22:35:55.582Z,96543.06
2023-03-05T22:38:22.763Z,96534.50
2023-03-05T22:40:50.129Z,96538.25
2023-03-05T22:43:18.248Z,96532.91
2023-03-05T22:45:45.056Z,96540.38
2023-03-05T22:48:11.962Z,96543.56
2023-03-05T22:50:40.026Z,96544.66
2023-03-05T22:53:06.737Z,96534.72
2023-03-05T22:55:33.433Z,96537.63
2023-03-05T22:58:00.093Z,96535.25
2023-03-05T23:00:26.828Z,96530.41
2023-03-05T23:02:54.049Z,96524.75
2023-03-05T23:05:21.165Z,96528.56
2023-03-05T23:07:48.021Z,96521.56
2023-03-05T23:10:19.490Z,96533.88
2023-03-05T23:12:49.471Z,96530.09
2023-03-05T23:15:19.455Z,96533.84
2023-03-05T23:17:46.265Z,96534.91
2023-03-05T23:20:17.057Z,96526.59
2023-03-05T23:22:45.337Z,96526.31
2023-03-05T23:25:13.612Z,96530.59
2023-03-05T23:27:40.846Z,96530.03
2023-03-05T23:30:19.954Z,96530.28
2023-03-05T23:32:57.253Z,96532.69
2023-03-05T23:35:27.107Z,96527.91
2023-03-05T23:37:55.567Z,96529.44
2023-03-05T23:40:24.793Z,96528.94
2023-03-05T23:42:52.595Z,96527.84
2023-03-05T23:45:20.419Z,96518.69
2023-03-05T23:47:48.361Z,96529.13
2023-03-05T23:50:25.605Z,96528.63
2023-03-05T23:52:54.336Z,96520.53
2023-03-05T23:55:27.040Z,96524.34
2023-03-05T23:57:54.166Z,96526.19
